createdAt,value
2017-08-14T00:00:36.485Z,97
2017-08-14T00:01:39.661Z,97
2017-08-14T00:02:42.146Z,97
2017-08-14T00:03:44.984Z,97
2017-08-14T00:04:47.821Z,97
2017-08-14T00:05:50.635Z,97
2017-08-14T00:06:53.486Z,96
2017-08-14T00:07:56.552Z,96
2017-08-14T00:08:59.385Z,96
2017-08-14T00:10:02.559Z,96
2017-08-14T00:11:05.040Z,96
2017-08-14T00:12:08.222Z,96
2017-08-14T00:13:11.408Z,96
2017-08-14T00:14:13.910Z,96
2017-08-14T00:15:16.409Z,96
2017-08-14T00:16:19.232Z,96
2017-08-14T00:17:21.714Z,96
2017-08-14T00:18:24.556Z,96
2017-08-14T00:19:27.035Z,96
2017-08-14T00:20:29.536Z,96
2017-08-14T00:21:32.039Z,96
2017-08-14T00:22:34.531Z,96
2017-08-14T00:23:37.685Z,96
2017-08-14T00:24:40.276Z,96
2017-08-14T00:25:42.762Z,96
2017-08-14T00:26:45.255Z,96
2017-08-14T00:27:48.081Z,96
2017-08-14T00:28:50.562Z,96
2017-08-14T00:29:53.057Z,96
2017-08-14T00:30:55.534Z,96
2017-08-14T00:31:58.023Z,96
2017-08-14T00:33:00.525Z,96
2017-08-14T00:34:03.343Z,96
2017-08-14T00:35:06.181Z,96
2017-08-14T00:36:08.687Z,96
2017-08-14T00:37:11.171Z,96
2017-08-14T00:38:14.004Z,96
2017-08-14T00:39:16.498Z,96
2017-08-14T00:40:19.328Z,96
2017-08-14T00:41:21.827Z,96
2017-08-14T00:42:24.311Z,96
2017-08-14T00:43:27.158Z,96
2017-08-14T00:44:29.973Z,96
2017-08-14T00:45:32.821Z,96
2017-08-14T00:46:35.324Z,96
2017-08-14T00:47:37.843Z,96
2017-08-14T00:48:40.330Z,96
2017-08-14T00:49:43.165Z,96
2017-08-14T00:50:45.641Z,96
2017-08-14T00:51:48.478Z,96
2017-08-14T00:52:51.672Z,96
2017-08-14T00:53:54.166Z,96
2017-08-14T00:54:56.997Z,96
2017-08-14T00:55:59.509Z,96
2017-08-14T00:57:01.991Z,96
2017-08-14T00:58:04.879Z,96
2017-08-14T00:59:07.700Z,96
2017-08-14T01:00:10.197Z,96
2017-08-14T01:01:12.687Z,96
2017-08-14T01:02:15.507Z,96
2017-08-14T01:03:18.018Z,96
2017-08-14T01:04:20.510Z,96
2017-08-14T01:05:22.984Z,96
2017-08-14T01:06:25.479Z,96
2017-08-14T01:07:27.984Z,96
2017-08-14T01:08:30.482Z,96
2017-08-14T01:09:32.957Z,96
2017-08-14T01:10:35.483Z,96
2017-08-14T01:11:37.966Z,96
2017-08-14T01:12:40.460Z,96
2017-08-14T01:13:43.301Z,96
2017-08-14T01:14:46.120Z,96
2017-08-14T01:15:48.938Z,96
2017-08-14T01:16:51.455Z,96
2017-08-14T01:17:54.271Z,96
2017-08-14T01:18:57.095Z,96
2017-08-14T01:19:59.927Z,96
2017-08-14T01:21:02.426Z,96
2017-08-14T01:22:04.932Z,96
2017-08-14T01:23:07.425Z,96
2017-08-14T01:24:09.900Z,96
2017-08-14T01:25:12.391Z,96
2017-08-14T01:26:14.881Z,96
2017-08-14T01:27:17.376Z,96
2017-08-14T01:28:20.214Z,96
2017-08-14T01:29:22.688Z,96
2017-08-14T01:30:25.183Z,96
2017-08-14T01:31:27.689Z,96
2017-08-14T01:32:30.850Z,97
2017-08-14T01:33:33.329Z,97
2017-08-14T01:34:36.188Z,97
2017-08-14T01:35:39.020Z,97
2017-08-14T01:36:41.507Z,97
2017-08-14T01:37:44.341Z,97
2017-08-14T01:38:47.145Z,97
2017-08-14T01:39:49.975Z,97
2017-08-14T01:40:52.454Z,97
2017-08-14T01:41:54.947Z,97
2017-08-14T01:42:57.788Z,97
2017-08-14T01:44:00.280Z,97
2017-08-14T01:45:03.118Z,97
2017-08-14T01:46:05.960Z,97
2017-08-14T01:47:08.434Z,97
2017-08-14T01:48:11.276Z,97
2017-08-14T01:49:13.754Z,97
2017-08-14T01:50:16.242Z,97
2017-08-14T01:51:18.712Z,97
2017-08-14T01:52:21.215Z,97
2017-08-14T01:53:24.029Z,97
2017-08-14T01:54:26.524Z,97
2017-08-14T01:55:29.349Z,97
2017-08-14T01:56:31.832Z,97
2017-08-14T01:57:34.315Z,97
2017-08-14T01:58:37.160Z,97
2017-08-14T01:59:39.628Z,97
2017-08-14T02:00:42.796Z,97
2017-08-14T02:01:45.289Z,97
2017-08-14T02:02:47.778Z,97
2017-08-14T02:03:50.627Z,97
2017-08-14T02:04:53.125Z,97
2017-08-14T02:05:55.610Z,97
2017-08-14T02:06:58.087Z,97
2017-08-14T02:08:00.584Z,97
2017-08-14T02:09:03.775Z,97
2017-08-14T02:10:06.587Z,97
2017-08-14T02:11:09.066Z,97
2017-08-14T02:12:11.560Z,97
2017-08-14T02:13:14.378Z,97
2017-08-14T02:14:17.221Z,97
2017-08-14T02:15:19.698Z,97
2017-08-14T02:16:22.511Z,97
2017-08-14T02:17:25.000Z,97
2017-08-14T02:18:27.487Z,98
2017-08-14T02:19:29.975Z,98
2017-08-14T02:20:32.459Z,98
2017-08-14T02:21:35.287Z,98
2017-08-14T02:22:37.773Z,98
2017-08-14T02:23:40.945Z,98
2017-08-14T02:24:43.775Z,98
2017-08-14T02:25:46.260Z,98
2017-08-14T02:26:49.109Z,98
2017-08-14T02:27:51.962Z,98
2017-08-14T02:28:54.446Z,98
2017-08-14T02:29:56.951Z,98
2017-08-14T02:30:59.759Z,98
2017-08-14T02:32:02.966Z,97
2017-08-14T02:33:05.817Z,97
2017-08-14T02:34:08.319Z,97
2017-08-14T02:35:10.800Z,97
2017-08-14T02:36:13.304Z,97
2017-08-14T02:37:15.831Z,97
2017-08-14T02:38:18.969Z,97
2017-08-14T02:39:21.462Z,97
2017-08-14T02:40:23.952Z,97
2017-08-14T02:41:26.791Z,97
2017-08-14T02:42:29.282Z,97
2017-08-14T02:43:31.773Z,97
2017-08-14T02:44:34.267Z,97
2017-08-14T02:45:36.771Z,97
2017-08-14T02:46:39.942Z,97
2017-08-14T02:47:42.419Z,97
2017-08-14T02:48:44.910Z,97
2017-08-14T02:49:48.417Z,97
2017-08-14T02:50:51.593Z,97
2017-08-14T02:51:54.761Z,97
2017-08-14T02:52:57.945Z,97
2017-08-14T02:54:00.444Z,97
2017-08-14T02:55:03.280Z,97
2017-08-14T02:56:05.761Z,97
2017-08-14T02:57:08.241Z,97
2017-08-14T02:58:10.731Z,97
2017-08-14T02:59:13.242Z,97
2017-08-14T03:00:16.065Z,97
2017-08-14T03:01:18.543Z,97
2017-08-14T03:02:21.028Z,97
2017-08-14T03:03:23.847Z,97
2017-08-14T03:04:26.689Z,97
2017-08-14T03:05:29.163Z,97
2017-08-14T03:06:31.648Z,97
2017-08-14T03:07:34.479Z,97
2017-08-14T03:08:36.970Z,97
2017-08-14T03:09:39.446Z,97
2017-08-14T03:10:42.267Z,97
2017-08-14T03:11:45.132Z,97
2017-08-14T03:12:47.604Z,97
2017-08-14T03:13:50.110Z,97
2017-08-14T03:14:52.599Z,97
2017-08-14T03:15:55.425Z,97
2017-08-14T03:16:57.924Z,97
2017-08-14T03:18:01.118Z,97
2017-08-14T03:19:04.284Z,97
2017-08-14T03:20:06.796Z,97
2017-08-14T03:21:09.261Z,97
2017-08-14T03:22:11.759Z,97
2017-08-14T03:23:14.239Z,97
2017-08-14T03:24:16.728Z,97
2017-08-14T03:25:19.208Z,97
2017-08-14T03:26:21.714Z,97
2017-08-14T03:27:24.194Z,97
2017-08-14T03:28:26.693Z,97
2017-08-14T03:29:29.187Z,97
2017-08-14T03:30:31.682Z,97
2017-08-14T03:31:34.535Z,97
2017-08-14T03:32:37.035Z,97
2017-08-14T03:33:39.859Z,97
2017-08-14T03:34:43.026Z,97
2017-08-14T03:35:45.512Z,97
2017-08-14T03:36:48.010Z,97
2017-08-14T03:37:50.476Z,97
2017-08-14T03:38:53.302Z,97
2017-08-14T03:39:55.813Z,97
2017-08-14T03:40:58.296Z,97
2017-08-14T03:42:00.781Z,97
2017-08-14T03:43:03.268Z,97
2017-08-14T03:44:05.748Z,97
2017-08-14T03:45:08.261Z,97
2017-08-14T03:46:10.752Z,97
2017-08-14T03:47:13.558Z,97
2017-08-14T03:48:16.387Z,97
2017-08-14T03:49:18.881Z,97
2017-08-14T03:50:21.697Z,97
2017-08-14T03:51:24.527Z,97
2017-08-14T03:52:27.351Z,97
2017-08-14T03:53:30.157Z,97
2017-08-14T03:54:32.644Z,97
2017-08-14T03:55:35.135Z,97
2017-08-14T03:56:37.953Z,97
2017-08-14T03:57:40.444Z,97
2017-08-14T03:58:42.967Z,97
2017-08-14T03:59:45.819Z,97
2017-08-14T04:00:48.324Z,97
2017-08-14T04:01:51.119Z,97
2017-08-14T04:02:53.612Z,97
2017-08-14T04:03:56.108Z,97
2017-08-14T04:04:58.936Z,97
2017-08-14T04:06:01.419Z,97
2017-08-14T04:07:04.242Z,98
2017-08-14T04:08:06.722Z,98
2017-08-14T04:09:09.208Z,98
2017-08-14T04:10:12.027Z,98
2017-08-14T04:11:14.879Z,97
2017-08-14T04:12:17.342Z,97
2017-08-14T04:13:19.838Z,97
2017-08-14T04:14:22.308Z,97
2017-08-14T04:15:24.787Z,97
2017-08-14T04:16:27.276Z,97
2017-08-14T04:17:29.758Z,97
2017-08-14T04:18:32.238Z,97
2017-08-14T04:19:35.072Z,97
2017-08-14T04:20:37.542Z,97
2017-08-14T04:21:40.029Z,97
2017-08-14T04:22:42.515Z,97
2017-08-14T04:23:45.004Z,97
2017-08-14T04:24:47.829Z,97
2017-08-14T04:25:50.335Z,97
2017-08-14T04:26:52.795Z,97
2017-08-14T04:27:55.638Z,97
2017-08-14T04:28:58.448Z,97
2017-08-14T04:30:00.939Z,98
2017-08-14T04:31:03.428Z,98
2017-08-14T04:32:05.923Z,98
2017-08-14T04:33:08.402Z,98
2017-08-14T04:34:10.885Z,98
2017-08-14T04:35:13.388Z,98
2017-08-14T04:36:15.897Z,98
2017-08-14T04:37:19.032Z,98
2017-08-14T04:38:21.520Z,98
2017-08-14T04:39:24.005Z,98
2017-08-14T04:40:26.483Z,98
2017-08-14T04:41:28.962Z,98
2017-08-14T04:42:31.444Z,98
2017-08-14T04:43:34.290Z,98
2017-08-14T04:44:37.124Z,98
2017-08-14T04:45:39.597Z,98
2017-08-14T04:46:42.136Z,98
2017-08-14T04:47:44.969Z,98
2017-08-14T04:48:47.796Z,98
2017-08-14T04:49:50.287Z,98
2017-08-14T04:50:52.770Z,98
2017-08-14T04:51:55.244Z,97
2017-08-14T04:52:57.729Z,98
2017-08-14T04:54:00.213Z,98
2017-08-14T04:55:03.042Z,98
2017-08-14T04:56:05.526Z,98
2017-08-14T04:57:08.014Z,98
2017-08-14T04:58:10.497Z,98
2017-08-14T04:59:12.997Z,98
2017-08-14T05:00:15.480Z,98
2017-08-14T05:01:17.962Z,98
2017-08-14T05:02:20.451Z,98
2017-08-14T05:03:22.954Z,98
2017-08-14T05:04:25.780Z,98
2017-08-14T05:05:28.607Z,98
2017-08-14T05:06:31.094Z,98
2017-08-14T05:07:33.925Z,98
2017-08-14T05:08:36.774Z,98
2017-08-14T05:09:39.615Z,98
2017-08-14T05:10:42.100Z,98
2017-08-14T05:11:44.579Z,98
2017-08-14T05:12:47.771Z,98
2017-08-14T05:13:50.594Z,98
2017-08-14T05:14:53.090Z,98
2017-08-14T05:15:55.571Z,98
2017-08-14T05:16:58.060Z,98
2017-08-14T05:18:00.544Z,98
2017-08-14T05:19:03.029Z,98
2017-08-14T05:20:05.843Z,98
2017-08-14T05:21:08.328Z,98
2017-08-14T05:22:10.824Z,98
2017-08-14T05:23:13.983Z,98
2017-08-14T05:24:16.486Z,98
2017-08-14T05:25:18.974Z,98
2017-08-14T05:26:21.457Z,98
2017-08-14T05:27:24.299Z,98
2017-08-14T05:28:26.787Z,98
2017-08-14T05:29:29.286Z,98
2017-08-14T05:30:32.106Z,98
2017-08-14T05:31:34.592Z,98
2017-08-14T05:32:37.074Z,98
2017-08-14T05:33:39.585Z,98
2017-08-14T05:34:42.739Z,98
2017-08-14T05:35:45.587Z,99
2017-08-14T05:36:48.417Z,99
2017-08-14T05:37:51.253Z,99
2017-08-14T05:38:53.739Z,99
2017-08-14T05:39:56.912Z,98
2017-08-14T05:40:59.736Z,98
2017-08-14T05:42:02.563Z,98
2017-08-14T05:43:05.392Z,98
2017-08-14T05:44:07.881Z,98
2017-08-14T05:45:10.366Z,98
2017-08-14T05:46:12.862Z,98
2017-08-14T05:47:15.682Z,99
2017-08-14T05:48:18.177Z,99
2017-08-14T05:49:20.660Z,99
2017-08-14T05:50:23.154Z,99
2017-08-14T05:51:25.659Z,99
2017-08-14T05:52:28.485Z,99
2017-08-14T05:53:30.978Z,99
2017-08-14T05:54:33.468Z,99
2017-08-14T05:55:35.959Z,99
2017-08-14T05:56:38.442Z,98
2017-08-14T05:57:40.915Z,98
2017-08-14T05:58:43.401Z,98
2017-08-14T05:59:46.226Z,98
2017-08-14T06:00:48.724Z,97
2017-08-14T06:01:51.205Z,97
2017-08-14T06:02:54.045Z,97
2017-08-14T06:03:56.542Z,97
2017-08-14T06:04:59.403Z,96
2017-08-14T06:06:02.231Z,96
2017-08-14T06:07:04.716Z,96
2017-08-14T06:08:07.561Z,96
2017-08-14T06:09:10.048Z,96
2017-08-14T06:10:12.862Z,95
2017-08-14T06:11:16.032Z,95
2017-08-14T06:12:18.560Z,95
2017-08-14T06:13:21.057Z,95
2017-08-14T06:14:23.562Z,95
2017-08-14T06:15:26.378Z,95
2017-08-14T06:16:29.196Z,95
2017-08-14T06:17:32.046Z,95
2017-08-14T06:18:34.861Z,95
2017-08-14T06:19:37.343Z,94
2017-08-14T06:20:39.822Z,94
2017-08-14T06:21:42.307Z,94
2017-08-14T06:22:44.819Z,93
2017-08-14T06:23:47.661Z,92
2017-08-14T06:24:50.128Z,92
2017-08-14T06:25:52.627Z,92
2017-08-14T06:26:55.125Z,91
2017-08-14T06:27:57.959Z,90
2017-08-14T06:29:00.449Z,90
2017-08-14T06:30:03.284Z,90
2017-08-14T06:31:06.455Z,90
2017-08-14T06:32:09.681Z,90
2017-08-14T06:33:12.842Z,89
2017-08-14T06:34:15.660Z,89
2017-08-14T06:35:18.826Z,90
2017-08-14T06:36:22.002Z,89
2017-08-14T06:37:24.832Z,89
2017-08-14T06:38:27.322Z,89
2017-08-14T06:39:30.164Z,89
2017-08-14T06:40:32.644Z,89
2017-08-14T06:41:35.494Z,88
2017-08-14T06:42:38.339Z,89
2017-08-14T06:43:41.490Z,87
2017-08-14T06:44:43.980Z,88
2017-08-14T06:45:46.460Z,87
2017-08-14T06:46:49.297Z,87
2017-08-14T06:47:51.798Z,88
2017-08-14T06:48:54.267Z,88
2017-08-14T06:49:57.107Z,87
2017-08-14T06:51:00.287Z,87
2017-08-14T06:52:02.804Z,86
2017-08-14T06:53:05.664Z,85
2017-08-14T06:54:08.161Z,85
2017-08-14T06:55:10.639Z,84
2017-08-14T06:56:13.484Z,85
2017-08-14T06:57:15.981Z,84
2017-08-14T06:58:18.458Z,84
2017-08-14T06:59:21.292Z,83
2017-08-14T07:00:23.801Z,82
2017-08-14T07:01:26.282Z,82
2017-08-14T07:02:28.764Z,83
2017-08-14T07:03:31.938Z,83
2017-08-14T07:04:34.434Z,83
2017-08-14T07:05:37.260Z,83
2017-08-14T07:06:39.754Z,83
2017-08-14T07:07:42.593Z,82
2017-08-14T07:08:45.435Z,81
2017-08-14T07:09:47.917Z,80
2017-08-14T07:10:50.404Z,80
2017-08-14T07:11:53.233Z,80
2017-08-14T07:12:55.724Z,81
2017-08-14T07:13:58.199Z,80
2017-08-14T07:15:01.027Z,80
2017-08-14T07:16:04.195Z,81
2017-08-14T07:17:07.062Z,79
2017-08-14T07:18:09.561Z,80
2017-08-14T07:19:12.392Z,80
2017-08-14T07:20:14.874Z,79
2017-08-14T07:21:17.369Z,79
2017-08-14T07:22:19.878Z,78
2017-08-14T07:23:22.374Z,79
2017-08-14T07:24:24.851Z,77
2017-08-14T07:25:27.678Z,76
2017-08-14T07:26:30.168Z,76
2017-08-14T07:27:32.683Z,76
2017-08-14T07:28:35.169Z,76
2017-08-14T07:29:37.658Z,77
2017-08-14T07:30:40.154Z,76
2017-08-14T07:31:42.700Z,76
2017-08-14T07:32:45.520Z,76
2017-08-14T07:33:49.042Z,78
2017-08-14T07:34:51.870Z,76
2017-08-14T07:35:54.361Z,76
2017-08-14T07:36:57.212Z,76
2017-08-14T07:38:00.061Z,77
2017-08-14T07:39:03.890Z,76
2017-08-14T07:40:06.774Z,76
2017-08-14T07:41:09.589Z,77
2017-08-14T07:42:12.078Z,77
2017-08-14T07:43:14.578Z,76
2017-08-14T07:44:17.070Z,75
2017-08-14T07:45:19.563Z,75
2017-08-14T07:46:22.073Z,75
2017-08-14T07:47:24.894Z,76
2017-08-14T07:48:27.393Z,76
2017-08-14T07:49:30.226Z,75
2017-08-14T07:50:32.733Z,74
2017-08-14T07:51:35.551Z,73
2017-08-14T07:52:38.054Z,74
2017-08-14T07:53:40.545Z,75
2017-08-14T07:54:43.387Z,74
2017-08-14T07:55:46.565Z,75
2017-08-14T07:56:49.749Z,74
2017-08-14T07:57:52.244Z,74
2017-08-14T07:58:54.744Z,73
2017-08-14T07:59:57.575Z,76
2017-08-14T08:01:00.759Z,74
2017-08-14T08:02:03.619Z,73
2017-08-14T08:03:06.122Z,72
2017-08-14T08:04:09.280Z,72
2017-08-14T08:05:11.801Z,73
2017-08-14T08:06:14.304Z,72
2017-08-14T08:07:17.473Z,70
2017-08-14T08:08:19.967Z,70
2017-08-14T08:09:22.478Z,70
2017-08-14T08:10:24.965Z,70
2017-08-14T08:11:27.806Z,69
2017-08-14T08:12:30.628Z,69
2017-08-14T08:13:33.115Z,70
2017-08-14T08:14:35.621Z,73
2017-08-14T08:15:38.454Z,70
2017-08-14T08:16:40.982Z,71
2017-08-14T08:17:43.820Z,67
2017-08-14T08:18:46.313Z,65
2017-08-14T08:19:48.835Z,64
2017-08-14T08:20:51.681Z,63
2017-08-14T08:21:54.173Z,62
2017-08-14T08:22:56.668Z,63
2017-08-14T08:23:59.196Z,64
2017-08-14T08:25:02.137Z,65
2017-08-14T08:26:04.974Z,65
2017-08-14T08:27:07.813Z,62
2017-08-14T08:28:10.636Z,61
2017-08-14T08:29:13.499Z,61
2017-08-14T08:30:16.010Z,60
2017-08-14T08:31:18.506Z,60
2017-08-14T08:32:21.366Z,57
2017-08-14T08:33:24.210Z,57
2017-08-14T08:34:26.707Z,58
2017-08-14T08:35:29.528Z,58
2017-08-14T08:36:32.029Z,57
2017-08-14T08:37:34.530Z,59
2017-08-14T08:38:37.731Z,61
2017-08-14T08:39:40.566Z,62
2017-08-14T08:40:43.060Z,61
2017-08-14T08:41:45.903Z,58
2017-08-14T08:42:48.748Z,56
2017-08-14T08:43:51.238Z,55
2017-08-14T08:44:53.734Z,56
2017-08-14T08:45:56.229Z,58
2017-08-14T08:46:59.064Z,55
2017-08-14T08:48:02.281Z,56
2017-08-14T08:49:04.791Z,57
2017-08-14T08:50:07.283Z,56
2017-08-14T08:51:09.779Z,55
2017-08-14T08:52:12.297Z,55
2017-08-14T08:53:15.141Z,55
2017-08-14T08:54:18.670Z,56
2017-08-14T08:55:21.188Z,59
2017-08-14T08:56:23.692Z,57
2017-08-14T08:57:26.202Z,56
2017-08-14T08:58:29.037Z,55
2017-08-14T08:59:31.534Z,54
2017-08-14T09:00:34.047Z,56
2017-08-14T09:01:36.572Z,57
2017-08-14T09:02:39.052Z,54
2017-08-14T09:03:42.569Z,54
2017-08-14T09:04:45.757Z,54
2017-08-14T09:05:48.248Z,52
2017-08-14T09:06:50.754Z,54
2017-08-14T09:07:53.599Z,52
2017-08-14T09:08:56.766Z,57
2017-08-14T09:09:59.625Z,56
2017-08-14T09:11:02.812Z,57
2017-08-14T09:12:05.983Z,53
2017-08-14T09:13:08.833Z,54
2017-08-14T09:14:11.678Z,54
2017-08-14T09:15:14.190Z,53
2017-08-14T09:16:16.705Z,56
2017-08-14T09:17:19.206Z,54
2017-08-14T09:18:21.707Z,54
2017-08-14T09:19:24.573Z,54
2017-08-14T09:20:27.744Z,56
2017-08-14T09:21:30.595Z,54
2017-08-14T09:22:33.103Z,53
2017-08-14T09:23:36.311Z,53
2017-08-14T09:24:39.155Z,53
2017-08-14T09:25:41.665Z,53
2017-08-14T09:26:44.864Z,53
2017-08-14T09:27:48.412Z,56
2017-08-14T09:28:51.610Z,56
2017-08-14T09:29:54.133Z,58
2017-08-14T09:30:56.624Z,59
2017-08-14T09:31:59.144Z,56
2017-08-14T09:33:01.992Z,54
2017-08-14T09:34:05.245Z,54
2017-08-14T09:35:08.090Z,56
2017-08-14T09:36:10.923Z,54
2017-08-14T09:37:13.786Z,56
2017-08-14T09:38:16.972Z,58
2017-08-14T09:39:19.517Z,58
2017-08-14T09:40:22.016Z,58
2017-08-14T09:41:24.532Z,56
2017-08-14T09:42:27.373Z,54
2017-08-14T09:43:30.584Z,53
2017-08-14T09:44:33.095Z,50
2017-08-14T09:45:36.282Z,49
2017-08-14T09:46:38.808Z,52
2017-08-14T09:47:41.311Z,51
2017-08-14T09:48:43.832Z,50
2017-08-14T09:49:47.039Z,50
2017-08-14T09:50:49.542Z,50
2017-08-14T09:51:52.452Z,50
2017-08-14T09:52:55.316Z,51
2017-08-14T09:53:58.162Z,53
2017-08-14T09:55:01.010Z,54
2017-08-14T09:56:04.211Z,54
2017-08-14T09:57:06.711Z,49
2017-08-14T09:58:09.569Z,50
2017-08-14T09:59:12.087Z,48
2017-08-14T10:00:14.951Z,51
2017-08-14T10:01:17.460Z,52
2017-08-14T10:02:20.315Z,57
2017-08-14T10:03:22.813Z,61
2017-08-14T10:04:25.329Z,62
2017-08-14T10:05:27.844Z,55
2017-08-14T10:06:30.701Z,55
2017-08-14T10:07:33.886Z,59
2017-08-14T10:08:36.769Z,62
2017-08-14T10:09:39.272Z,56
2017-08-14T10:10:41.783Z,54
2017-08-14T10:11:44.301Z,58
2017-08-14T10:12:46.819Z,59
2017-08-14T10:13:49.674Z,58
2017-08-14T10:14:52.877Z,59
2017-08-14T10:15:55.732Z,59
2017-08-14T10:16:58.951Z,54
2017-08-14T10:18:02.157Z,55
2017-08-14T10:19:04.994Z,57
2017-08-14T10:20:08.184Z,60
2017-08-14T10:21:11.411Z,63
2017-08-14T10:22:14.246Z,63
2017-08-14T10:23:16.750Z,61
2017-08-14T10:24:19.608Z,61
2017-08-14T10:25:22.456Z,63
2017-08-14T10:26:25.652Z,58
2017-08-14T10:27:28.197Z,51
2017-08-14T10:28:31.039Z,50
2017-08-14T10:29:33.549Z,49
2017-08-14T10:30:36.764Z,48
2017-08-14T10:31:39.264Z,49
2017-08-14T10:32:42.113Z,50
2017-08-14T10:33:44.644Z,49
2017-08-14T10:34:47.833Z,49
2017-08-14T10:35:51.039Z,48
2017-08-14T10:36:53.892Z,47
2017-08-14T10:37:56.755Z,47
2017-08-14T10:38:59.263Z,50
2017-08-14T10:40:02.442Z,49
2017-08-14T10:41:05.271Z,46
2017-08-14T10:42:07.796Z,45
2017-08-14T10:43:10.307Z,45
2017-08-14T10:44:12.828Z,44
2017-08-14T10:45:15.327Z,44
2017-08-14T10:46:17.839Z,45
2017-08-14T10:47:21.385Z,44
2017-08-14T10:48:24.567Z,45
2017-08-14T10:49:27.081Z,46
2017-08-14T10:50:29.608Z,45
2017-08-14T10:51:32.108Z,45
2017-08-14T10:52:34.634Z,44
2017-08-14T10:53:37.813Z,44
2017-08-14T10:54:41.005Z,43
2017-08-14T10:55:43.508Z,43
2017-08-14T10:56:46.701Z,44
2017-08-14T10:57:49.215Z,45
2017-08-14T10:58:51.727Z,48
2017-08-14T10:59:54.245Z,47
2017-08-14T11:00:57.101Z,47
2017-08-14T11:01:59.965Z,47
2017-08-14T11:03:02.489Z,47
2017-08-14T11:04:05.349Z,49
2017-08-14T11:05:07.861Z,51
2017-08-14T11:06:10.707Z,47
2017-08-14T11:07:13.238Z,47
2017-08-14T11:08:16.094Z,49
2017-08-14T11:09:18.938Z,48
2017-08-14T11:10:21.455Z,48
2017-08-14T11:11:23.969Z,49
2017-08-14T11:12:26.471Z,51
2017-08-14T11:13:29.332Z,50
2017-08-14T11:14:32.200Z,49
2017-08-14T11:15:34.702Z,47
2017-08-14T11:16:37.592Z,47
2017-08-14T11:17:40.791Z,49
2017-08-14T11:18:43.283Z,45
2017-08-14T11:19:45.798Z,44
2017-08-14T11:20:48.320Z,44
2017-08-14T11:21:51.173Z,44
2017-08-14T11:22:53.689Z,44
2017-08-14T11:23:56.192Z,44
2017-08-14T11:24:58.694Z,44
2017-08-14T11:26:01.554Z,45
2017-08-14T11:27:04.411Z,45
2017-08-14T11:28:07.270Z,46
2017-08-14T11:29:10.132Z,45
2017-08-14T11:30:12.978Z,47
2017-08-14T11:31:15.818Z,47
2017-08-14T11:32:18.656Z,46
2017-08-14T11:33:21.518Z,50
2017-08-14T11:34:24.013Z,50
2017-08-14T11:35:26.523Z,51
2017-08-14T11:36:29.388Z,48
2017-08-14T11:37:31.903Z,52
2017-08-14T11:38:34.754Z,54
2017-08-14T11:39:37.265Z,55
2017-08-14T11:40:39.776Z,47
2017-08-14T11:41:42.626Z,51
2017-08-14T11:42:45.478Z,47
2017-08-14T11:43:47.994Z,43
2017-08-14T11:44:50.820Z,44
2017-08-14T11:45:54.033Z,46
2017-08-14T11:46:57.267Z,45
2017-08-14T11:47:59.788Z,45
2017-08-14T11:49:02.296Z,46
2017-08-14T11:50:04.820Z,44
2017-08-14T11:51:07.696Z,43
2017-08-14T11:52:11.251Z,43
2017-08-14T11:53:14.093Z,43
2017-08-14T11:54:16.622Z,42
2017-08-14T11:55:19.489Z,43
2017-08-14T11:56:22.009Z,45
2017-08-14T11:57:24.521Z,45
2017-08-14T11:58:27.078Z,44
2017-08-14T11:59:29.582Z,45
2017-08-14T12:00:32.105Z,45
2017-08-14T12:01:34.960Z,44
2017-08-14T12:02:37.463Z,47
2017-08-14T12:03:40.302Z,49
2017-08-14T12:04:42.829Z,48
2017-08-14T12:05:45.342Z,50
2017-08-14T12:06:48.191Z,52
2017-08-14T12:07:51.062Z,49
2017-08-14T12:08:54.231Z,49
2017-08-14T12:09:57.096Z,51
2017-08-14T12:10:59.614Z,46
2017-08-14T12:12:02.461Z,48
2017-08-14T12:13:05.301Z,48
2017-08-14T12:14:07.808Z,47
2017-08-14T12:15:10.648Z,49
2017-08-14T12:16:13.168Z,50
2017-08-14T12:17:16.361Z,52
2017-08-14T12:18:18.899Z,51
2017-08-14T12:19:21.401Z,50
2017-08-14T12:20:23.921Z,48
2017-08-14T12:21:26.413Z,49
2017-08-14T12:22:28.928Z,50
2017-08-14T12:23:31.412Z,50
2017-08-14T12:24:34.265Z,49
2017-08-14T12:25:36.787Z,48
2017-08-14T12:26:39.305Z,46
2017-08-14T12:27:42.154Z,46
2017-08-14T12:28:44.656Z,46
2017-08-14T12:29:47.172Z,47
2017-08-14T12:30:50.018Z,46
2017-08-14T12:31:52.849Z,46
2017-08-14T12:32:55.711Z,46
2017-08-14T12:33:58.239Z,46
2017-08-14T12:35:00.732Z,44
2017-08-14T12:36:03.607Z,45
2017-08-14T12:37:07.139Z,46
2017-08-14T12:38:09.650Z,46
2017-08-14T12:39:12.183Z,42
2017-08-14T12:40:15.358Z,42
2017-08-14T12:41:17.860Z,40
2017-08-14T12:42:20.398Z,40
2017-08-14T12:43:23.241Z,41
2017-08-14T12:44:25.737Z,42
2017-08-14T12:45:28.580Z,41
2017-08-14T12:46:31.086Z,40
2017-08-14T12:47:33.602Z,41
2017-08-14T12:48:36.131Z,41
2017-08-14T12:49:38.629Z,41
2017-08-14T12:50:41.149Z,39
2017-08-14T12:51:43.675Z,39
2017-08-14T12:52:46.189Z,40
2017-08-14T12:53:48.708Z,41
2017-08-14T12:54:51.550Z,41
2017-08-14T12:55:54.398Z,43
2017-08-14T12:56:57.260Z,45
2017-08-14T12:58:00.120Z,45
2017-08-14T12:59:02.634Z,44
2017-08-14T13:00:05.532Z,43
2017-08-14T13:01:09.072Z,42
2017-08-14T13:02:11.581Z,44
2017-08-14T13:03:14.462Z,43
2017-08-14T13:04:16.980Z,42
2017-08-14T13:05:19.494Z,45
2017-08-14T13:06:22.318Z,43
2017-08-14T13:07:24.832Z,45
2017-08-14T13:08:27.348Z,48
2017-08-14T13:09:29.859Z,50
2017-08-14T13:10:32.373Z,42
2017-08-14T13:11:35.229Z,47
2017-08-14T13:12:37.747Z,49
2017-08-14T13:13:41.313Z,50
2017-08-14T13:14:43.814Z,52
2017-08-14T13:15:46.770Z,54
2017-08-14T13:16:49.335Z,51
2017-08-14T13:17:52.189Z,51
2017-08-14T13:18:54.712Z,48
2017-08-14T13:19:57.227Z,52
2017-08-14T13:20:59.727Z,49
2017-08-14T13:22:03.287Z,45
2017-08-14T13:23:05.780Z,46
2017-08-14T13:24:08.364Z,45
2017-08-14T13:25:11.225Z,44
2017-08-14T13:26:14.124Z,47
2017-08-14T13:27:16.622Z,48
2017-08-14T13:28:19.829Z,47
2017-08-14T13:29:22.332Z,46
2017-08-14T13:30:24.853Z,46
2017-08-14T13:31:27.727Z,45
2017-08-14T13:32:30.211Z,45
2017-08-14T13:33:32.732Z,45
2017-08-14T13:34:36.281Z,44
2017-08-14T13:35:38.831Z,43
2017-08-14T13:36:41.673Z,43
2017-08-14T13:37:44.179Z,42
2017-08-14T13:38:46.681Z,42
2017-08-14T13:39:49.208Z,44
2017-08-14T13:40:52.060Z,45
2017-08-14T13:41:54.890Z,44
2017-08-14T13:42:57.765Z,48
2017-08-14T13:44:00.615Z,45
2017-08-14T13:45:03.496Z,43
2017-08-14T13:46:06.021Z,43
2017-08-14T13:47:08.530Z,40
2017-08-14T13:48:11.069Z,40
2017-08-14T13:49:13.584Z,41
2017-08-14T13:50:16.433Z,41
2017-08-14T13:51:18.959Z,40
2017-08-14T13:52:21.471Z,40
2017-08-14T13:53:24.326Z,41
2017-08-14T13:54:27.200Z,46
2017-08-14T13:55:29.675Z,42
2017-08-14T13:56:32.153Z,47
2017-08-14T13:57:34.621Z,44
2017-08-14T13:58:37.444Z,43
2017-08-14T13:59:39.915Z,40
2017-08-14T14:00:42.388Z,42
2017-08-14T14:01:44.939Z,40
2017-08-14T14:02:48.117Z,38
2017-08-14T14:03:50.938Z,43
2017-08-14T14:04:53.437Z,44
2017-08-14T14:05:55.934Z,45
2017-08-14T14:06:58.419Z,44
2017-08-14T14:08:01.231Z,44
2017-08-14T14:09:04.058Z,44
2017-08-14T14:10:06.929Z,45
2017-08-14T14:11:10.085Z,44
2017-08-14T14:12:12.907Z,43
2017-08-14T14:13:15.744Z,43
2017-08-14T14:14:18.214Z,46
2017-08-14T14:15:21.051Z,49
2017-08-14T14:16:23.895Z,49
2017-08-14T14:17:26.369Z,46
2017-08-14T14:18:29.196Z,46
2017-08-14T14:19:31.676Z,48
2017-08-14T14:20:34.147Z,45
2017-08-14T14:21:36.645Z,51
2017-08-14T14:22:39.447Z,47
2017-08-14T14:23:41.914Z,47
2017-08-14T14:24:44.734Z,42
2017-08-14T14:25:47.232Z,41
2017-08-14T14:26:49.721Z,41
2017-08-14T14:27:52.204Z,42
2017-08-14T14:28:55.036Z,44
2017-08-14T14:29:58.525Z,44
2017-08-14T14:31:02.028Z,45
2017-08-14T14:32:04.841Z,44
2017-08-14T14:33:07.314Z,44
2017-08-14T14:34:09.778Z,45
2017-08-14T14:35:12.605Z,46
2017-08-14T14:36:15.060Z,47
2017-08-14T14:37:17.567Z,47
2017-08-14T14:38:20.029Z,46
2017-08-14T14:39:22.533Z,45
2017-08-14T14:40:25.691Z,45
2017-08-14T14:41:28.171Z,45
2017-08-14T14:42:30.651Z,44
2017-08-14T14:43:33.124Z,43
2017-08-14T14:44:35.606Z,44
2017-08-14T14:45:38.095Z,45
2017-08-14T14:46:40.568Z,44
2017-08-14T14:47:43.402Z,46
2017-08-14T14:48:46.202Z,45
2017-08-14T14:49:48.685Z,44
2017-08-14T14:50:51.155Z,44
2017-08-14T14:51:53.648Z,43
2017-08-14T14:52:56.136Z,43
2017-08-14T14:53:58.608Z,45